Santa Nella, California
Current Conditions -  °F | °C
As of 5:53 PM on Wednesday 22 Oct 2014 (Local Time) from KMCE Reporting Station
Clear Clear  
Wind Chill: 74°   Ceiling: Unl
Heat Index: 74°   Visibility: 10mi
Dew Point: 40°   Wind: 5mph
Humidity: 29%   Direction: 320°NW
Pressure: 29.99"   Gusts: NA
Location:  37.1919°N, 120.985°W
Report Text: KMCE 230053Z AUTO 32004KT 10SM CLR 23/04 A2999 RMK AO2 SLP154 T02330044
Loading
Personal Weather Stations






























Interactive Weather Map
Tropical Storm Tracking
New forecast layout! Learn more

10-Day Weather Forecast

Advertisements
Track Severe Weather on mobile